sensor_id;sensor_type;location;lat;lon;timestamp;temperature;humidity
52127;DHT22;38120;53.176;6.614;2023-12-14T00:02:07;4.70;99.90
52127;DHT22;38120;53.176;6.614;2023-12-14T00:04:33;4.70;99.90
52127;DHT22;38120;53.176;6.614;2023-12-14T00:06:58;4.70;99.90
52127;DHT22;38120;53.176;6.614;2023-12-14T00:09:24;4.60;99.90
52127;DHT22;38120;53.176;6.614;2023-12-14T00:11:50;4.60;99.90
52127;DHT22;38120;53.176;6.614;2023-12-14T00:14:15;4.60;99.90
52127;DHT22;38120;53.176;6.614;2023-12-14T00:16:41;4.50;99.90
52127;DHT22;38120;53.176;6.614;2023-12-14T00:19:07;4.90;99.90
52127;DHT22;38120;53.176;6.614;2023-12-14T00:21:32;4.70;99.90
52127;DHT22;38120;53.176;6.614;2023-12-14T00:23:58;4.50;99.90
52127;DHT22;38120;53.176;6.614;2023-12-14T00:26:24;4.60;99.90
52127;DHT22;38120;53.176;6.614;2023-12-14T00:28:49;4.50;99.90
52127;DHT22;38120;53.176;6.614;2023-12-14T00:31:15;4.50;99.90
52127;DHT22;38120;53.176;6.614;2023-12-14T00:33:42;4.50;99.90
52127;DHT22;38120;53.176;6.614;2023-12-14T00:36:08;4.50;99.90
52127;DHT22;38120;53.176;6.614;2023-12-14T00:38:34;4.60;99.90
52127;DHT22;38120;53.176;6.614;2023-12-14T00:41:00;4.50;99.90
52127;DHT22;38120;53.176;6.614;2023-12-14T00:43:25;4.60;99.90
52127;DHT22;38120;53.176;6.614;2023-12-14T00:45:51;4.70;99.90
52127;DHT22;38120;53.176;6.614;2023-12-14T00:48:17;4.50;99.90
52127;DHT22;38120;53.176;6.614;2023-12-14T00:50:43;4.50;99.90
52127;DHT22;38120;53.176;6.614;2023-12-14T00:53:09;4.50;99.90
52127;DHT22;38120;53.176;6.614;2023-12-14T00:55:34;4.50;99.90
52127;DHT22;38120;53.176;6.614;2023-12-14T00:58:00;4.50;99.90
52127;DHT22;38120;53.176;6.614;2023-12-14T01:00:26;4.50;99.90
52127;DHT22;38120;53.176;6.614;2023-12-14T01:02:51;4.50;99.90
52127;DHT22;38120;53.176;6.614;2023-12-14T01:05:17;4.50;99.90
52127;DHT22;38120;53.176;6.614;2023-12-14T01:07:43;4.50;99.90
52127;DHT22;38120;53.176;6.614;2023-12-14T01:10:09;4.50;99.90
52127;DHT22;38120;53.176;6.614;2023-12-14T01:12:34;4.50;99.90
52127;DHT22;38120;53.176;6.614;2023-12-14T01:15:00;4.60;99.90
52127;DHT22;38120;53.176;6.614;2023-12-14T01:17:26;4.50;99.90
52127;DHT22;38120;53.176;6.614;2023-12-14T01:19:52;4.50;99.90
52127;DHT22;38120;53.176;6.614;2023-12-14T01:22:18;4.50;99.90
52127;DHT22;38120;53.176;6.614;2023-12-14T01:24:43;4.50;99.90
52127;DHT22;38120;53.176;6.614;2023-12-14T01:27:09;4.60;99.90
52127;DHT22;38120;53.176;6.614;2023-12-14T01:29:35;4.90;99.90
52127;DHT22;38120;53.176;6.614;2023-12-14T01:32:01;4.50;99.90
52127;DHT22;38120;53.176;6.614;2023-12-14T01:34:26;4.40;99.90
52127;DHT22;38120;53.176;6.614;2023-12-14T01:36:52;4.50;99.90
52127;DHT22;38120;53.176;6.614;2023-12-14T01:39:18;4.50;99.90
52127;DHT22;38120;53.176;6.614;2023-12-14T01:41:43;4.40;99.90
52127;DHT22;38120;53.176;6.614;2023-12-14T01:44:09;4.50;99.90
52127;DHT22;38120;53.176;6.614;2023-12-14T01:46:35;4.50;99.90
52127;DHT22;38120;53.176;6.614;2023-12-14T01:49:00;4.50;99.90
52127;DHT22;38120;53.176;6.614;2023-12-14T01:51:26;4.40;99.90
52127;DHT22;38120;53.176;6.614;2023-12-14T01:53:52;4.50;99.90
52127;DHT22;38120;53.176;6.614;2023-12-14T01:56:17;4.50;99.90
52127;DHT22;38120;53.176;6.614;2023-12-14T01:58:43;4.40;99.90
52127;DHT22;38120;53.176;6.614;2023-12-14T02:03:53;4.60;99.90
52127;DHT22;38120;53.176;6.614;2023-12-14T02:06:20;4.40;99.90
52127;DHT22;38120;53.176;6.614;2023-12-14T02:08:45;4.50;99.90
52127;DHT22;38120;53.176;6.614;2023-12-14T02:11:12;4.50;99.90
52127;DHT22;38120;53.176;6.614;2023-12-14T02:13:37;4.50;99.90
52127;DHT22;38120;53.176;6.614;2023-12-14T02:16:04;4.50;99.90
52127;DHT22;38120;53.176;6.614;2023-12-14T02:18:29;4.50;99.90
52127;DHT22;38120;53.176;6.614;2023-12-14T02:20:55;4.70;99.90
52127;DHT22;38120;53.176;6.614;2023-12-14T02:23:21;4.90;99.90
52127;DHT22;38120;53.176;6.614;2023-12-14T02:25:47;4.40;99.90
52127;DHT22;38120;53.176;6.614;2023-12-14T02:28:12;4.50;99.90
52127;DHT22;38120;53.176;6.614;2023-12-14T02:30:38;4.50;99.90
52127;DHT22;38120;53.176;6.614;2023-12-14T02:33:04;4.50;99.90
52127;DHT22;38120;53.176;6.614;2023-12-14T02:35:29;4.50;99.90
52127;DHT22;38120;53.176;6.614;2023-12-14T02:37:55;4.50;99.90
52127;DHT22;38120;53.176;6.614;2023-12-14T02:40:21;4.50;99.90
52127;DHT22;38120;53.176;6.614;2023-12-14T02:42:46;4.60;99.90
52127;DHT22;38120;53.176;6.614;2023-12-14T02:45:12;4.50;99.90
52127;DHT22;38120;53.176;6.614;2023-12-14T02:47:38;4.50;99.90
52127;DHT22;38120;53.176;6.614;2023-12-14T02:50:04;4.50;99.90
52127;DHT22;38120;53.176;6.614;2023-12-14T02:52:30;4.50;99.90
52127;DHT22;38120;53.176;6.614;2023-12-14T02:54:56;4.50;99.90
52127;DHT22;38120;53.176;6.614;2023-12-14T02:57:22;4.60;99.90
52127;DHT22;38120;53.176;6.614;2023-12-14T02:59:47;4.50;99.90
52127;DHT22;38120;53.176;6.614;2023-12-14T03:02:13;4.50;99.90
52127;DHT22;38120;53.176;6.614;2023-12-14T03:04:39;4.50;99.90
52127;DHT22;38120;53.176;6.614;2023-12-14T03:07:07;4.40;99.90
52127;DHT22;38120;53.176;6.614;2023-12-14T03:09:33;4.50;99.90
52127;DHT22;38120;53.176;6.614;2023-12-14T03:12:00;4.50;99.90
52127;DHT22;38120;53.176;6.614;2023-12-14T03:14:26;4.50;99.90
52127;DHT22;38120;53.176;6.614;2023-12-14T03:16:51;4.50;99.90
52127;DHT22;38120;53.176;6.614;2023-12-14T03:19:18;4.50;99.90
52127;DHT22;38120;53.176;6.614;2023-12-14T03:21:44;4.50;99.90
52127;DHT22;38120;53.176;6.614;2023-12-14T03:24:09;4.50;99.90
52127;DHT22;38120;53.176;6.614;2023-12-14T03:26:35;4.40;99.90
52127;DHT22;38120;53.176;6.614;2023-12-14T03:29:01;4.50;99.90
52127;DHT22;38120;53.176;6.614;2023-12-14T03:31:26;4.50;99.90
52127;DHT22;38120;53.176;6.614;2023-12-14T03:33:52;4.50;99.90
52127;DHT22;38120;53.176;6.614;2023-12-14T03:36:18;4.50;99.90
52127;DHT22;38120;53.176;6.614;2023-12-14T03:38:43;4.50;99.90
52127;DHT22;38120;53.176;6.614;2023-12-14T03:41:12;4.50;99.90
52127;DHT22;38120;53.176;6.614;2023-12-14T03:43:38;4.60;99.90
52127;DHT22;38120;53.176;6.614;2023-12-14T03:46:04;4.50;99.90
52127;DHT22;38120;53.176;6.614;2023-12-14T03:48:32;4.50;99.90
52127;DHT22;38120;53.176;6.614;2023-12-14T03:50:57;4.50;99.90
52127;DHT22;38120;53.176;6.614;2023-12-14T03:53:28;4.50;99.90
52127;DHT22;38120;53.176;6.614;2023-12-14T03:55:57;4.50;99.90
52127;DHT22;38120;53.176;6.614;2023-12-14T03:58:23;4.50;99.90
52127;DHT22;38120;53.176;6.614;2023-12-14T04:00:48;4.50;99.90
52127;DHT22;38120;53.176;6.614;2023-12-14T04:03:16;4.50;99.90
52127;DHT22;38120;53.176;6.614;2023-12-14T04:05:42;4.70;99.90
52127;DHT22;38120;53.176;6.614;2023-12-14T04:08:09;5.10;99.90
52127;DHT22;38120;53.176;6.614;2023-12-14T04:10:35;4.40;99.90
52127;DHT22;38120;53.176;6.614;2023-12-14T04:13:01;4.40;99.90
52127;DHT22;38120;53.176;6.614;2023-12-14T04:15:26;4.90;99.90
52127;DHT22;38120;53.176;6.614;2023-12-14T04:17:53;4.40;99.90
52127;DHT22;38120;53.176;6.614;2023-12-14T04:20:19;4.50;99.90
52127;DHT22;38120;53.176;6.614;2023-12-14T04:22:44;4.40;99.90
52127;DHT22;38120;53.176;6.614;2023-12-14T04:25:10;4.40;99.90
52127;DHT22;38120;53.176;6.614;2023-12-14T04:27:36;4.40;99.90
52127;DHT22;38120;53.176;6.614;2023-12-14T04:30:02;4.70;99.90
52127;DHT22;38120;53.176;6.614;2023-12-14T04:32:31;4.40;99.90
52127;DHT22;38120;53.176;6.614;2023-12-14T04:34:56;4.50;99.90
52127;DHT22;38120;53.176;6.614;2023-12-14T04:37:22;4.40;99.90
52127;DHT22;38120;53.176;6.614;2023-12-14T04:39:48;4.60;99.90
52127;DHT22;38120;53.176;6.614;2023-12-14T04:42:13;4.40;99.90
52127;DHT22;38120;53.176;6.614;2023-12-14T04:44:39;4.40;99.90
52127;DHT22;38120;53.176;6.614;2023-12-14T04:47:05;4.40;99.90
52127;DHT22;38120;53.176;6.614;2023-12-14T04:49:30;4.40;99.90
52127;DHT22;38120;53.176;6.614;2023-12-14T04:51:56;4.70;99.90
52127;DHT22;38120;53.176;6.614;2023-12-14T04:54:21;4.70;99.90
52127;DHT22;38120;53.176;6.614;2023-12-14T04:56:47;4.40;99.90
52127;DHT22;38120;53.176;6.614;2023-12-14T04:59:13;4.40;99.90
52127;DHT22;38120;53.176;6.614;2023-12-14T05:01:38;4.40;99.90
52127;DHT22;38120;53.176;6.614;2023-12-14T05:04:04;4.40;99.90
52127;DHT22;38120;53.176;6.614;2023-12-14T05:06:30;4.40;99.90
52127;DHT22;38120;53.176;6.614;2023-12-14T05:08:58;4.40;99.90
52127;DHT22;38120;53.176;6.614;2023-12-14T05:11:24;4.40;99.90
52127;DHT22;38120;53.176;6.614;2023-12-14T05:13:50;4.40;99.90
52127;DHT22;38120;53.176;6.614;2023-12-14T05:16:18;4.50;99.90
52127;DHT22;38120;53.176;6.614;2023-12-14T05:18:44;4.50;99.90
52127;DHT22;38120;53.176;6.614;2023-12-14T05:21:17;4.80;99.90
52127;DHT22;38120;53.176;6.614;2023-12-14T05:23:46;4.50;99.90
52127;DHT22;38120;53.176;6.614;2023-12-14T05:26:12;4.50;99.90
52127;DHT22;38120;53.176;6.614;2023-12-14T05:28:37;4.50;99.90
52127;DHT22;38120;53.176;6.614;2023-12-14T05:31:08;4.50;99.90
52127;DHT22;38120;53.176;6.614;2023-12-14T05:33:38;4.50;99.90
52127;DHT22;38120;53.176;6.614;2023-12-14T05:36:10;4.50;99.90
52127;DHT22;38120;53.176;6.614;2023-12-14T05:38:38;4.50;99.90
52127;DHT22;38120;53.176;6.614;2023-12-14T05:41:04;4.50;99.90
52127;DHT22;38120;53.176;6.614;2023-12-14T05:43:34;4.50;99.90
52127;DHT22;38120;53.176;6.614;2023-12-14T05:46:04;4.50;99.90
52127;DHT22;38120;53.176;6.614;2023-12-14T05:48:33;4.50;99.90
52127;DHT22;38120;53.176;6.614;2023-12-14T05:51:00;4.50;99.90
52127;DHT22;38120;53.176;6.614;2023-12-14T05:53:25;4.60;99.90
52127;DHT22;38120;53.176;6.614;2023-12-14T05:55:56;5.20;99.90
52127;DHT22;38120;53.176;6.614;2023-12-14T05:58:22;4.60;99.90
52127;DHT22;38120;53.176;6.614;2023-12-14T06:00:48;4.50;99.90
52127;DHT22;38120;53.176;6.614;2023-12-14T06:03:13;4.50;99.90
52127;DHT22;38120;53.176;6.614;2023-12-14T06:05:39;4.50;99.90
52127;DHT22;38120;53.176;6.614;2023-12-14T06:08:05;4.60;99.90
52127;DHT22;38120;53.176;6.614;2023-12-14T06:10:30;4.60;99.90
52127;DHT22;38120;53.176;6.614;2023-12-14T06:12:58;4.50;99.90
52127;DHT22;38120;53.176;6.614;2023-12-14T06:15:23;4.50;99.90
52127;DHT22;38120;53.176;6.614;2023-12-14T06:17:49;4.50;99.90
52127;DHT22;38120;53.176;6.614;2023-12-14T06:20:15;4.60;99.90
52127;DHT22;38120;53.176;6.614;2023-12-14T06:22:41;4.60;99.90
52127;DHT22;38120;53.176;6.614;2023-12-14T06:25:07;4.60;99.90
52127;DHT22;38120;53.176;6.614;2023-12-14T06:27:33;4.50;99.90
52127;DHT22;38120;53.176;6.614;2023-12-14T06:29:59;4.60;99.90
52127;DHT22;38120;53.176;6.614;2023-12-14T06:32:24;4.60;99.90
52127;DHT22;38120;53.176;6.614;2023-12-14T06:34:50;4.60;99.90
52127;DHT22;38120;53.176;6.614;2023-12-14T06:37:16;4.60;99.90
52127;DHT22;38120;53.176;6.614;2023-12-14T06:39:42;4.60;99.90
52127;DHT22;38120;53.176;6.614;2023-12-14T06:42:07;4.60;99.90
52127;DHT22;38120;53.176;6.614;2023-12-14T06:44:33;4.90;99.90
52127;DHT22;38120;53.176;6.614;2023-12-14T06:46:59;4.60;99.90
52127;DHT22;38120;53.176;6.614;2023-12-14T06:49:25;4.60;99.90
52127;DHT22;38120;53.176;6.614;2023-12-14T06:51:51;4.60;99.90
52127;DHT22;38120;53.176;6.614;2023-12-14T06:54:17;4.60;99.90
52127;DHT22;38120;53.176;6.614;2023-12-14T06:56:43;4.60;99.90
52127;DHT22;38120;53.176;6.614;2023-12-14T06:59:08;4.60;99.90
52127;DHT22;38120;53.176;6.614;2023-12-14T07:01:34;4.60;99.90
52127;DHT22;38120;53.176;6.614;2023-12-14T07:04:00;4.60;99.90
52127;DHT22;38120;53.176;6.614;2023-12-14T07:06:26;5.00;99.90
52127;DHT22;38120;53.176;6.614;2023-12-14T07:08:51;4.50;99.90
52127;DHT22;38120;53.176;6.614;2023-12-14T07:11:17;4.60;99.90
52127;DHT22;38120;53.176;6.614;2023-12-14T07:13:42;4.60;99.90
52127;DHT22;38120;53.176;6.614;2023-12-14T07:16:09;4.50;99.90
52127;DHT22;38120;53.176;6.614;2023-12-14T07:18:40;4.80;99.90
52127;DHT22;38120;53.176;6.614;2023-12-14T07:21:07;4.60;99.90
52127;DHT22;38120;53.176;6.614;2023-12-14T07:23:33;4.60;99.90
52127;DHT22;38120;53.176;6.614;2023-12-14T07:25:59;4.60;99.90
52127;DHT22;38120;53.176;6.614;2023-12-14T07:28:25;4.50;99.90
52127;DHT22;38120;53.176;6.614;2023-12-14T07:30:51;4.50;99.90
52127;DHT22;38120;53.176;6.614;2023-12-14T07:33:17;4.70;99.90
52127;DHT22;38120;53.176;6.614;2023-12-14T07:35:42;4.50;99.90
52127;DHT22;38120;53.176;6.614;2023-12-14T07:38:10;4.60;99.90
52127;DHT22;38120;53.176;6.614;2023-12-14T07:40:36;4.70;99.90
52127;DHT22;38120;53.176;6.614;2023-12-14T07:43:02;4.60;99.90
52127;DHT22;38120;53.176;6.614;2023-12-14T07:45:28;4.60;99.90
52127;DHT22;38120;53.176;6.614;2023-12-14T07:47:53;4.60;99.90
52127;DHT22;38120;53.176;6.614;2023-12-14T07:50:19;4.70;99.90
52127;DHT22;38120;53.176;6.614;2023-12-14T07:52:45;4.60;99.90
52127;DHT22;38120;53.176;6.614;2023-12-14T07:55:10;4.60;99.90
52127;DHT22;38120;53.176;6.614;2023-12-14T07:57:36;4.60;99.90
52127;DHT22;38120;53.176;6.614;2023-12-14T08:00:03;4.70;99.90
52127;DHT22;38120;53.176;6.614;2023-12-14T08:02:29;4.60;99.90
52127;DHT22;38120;53.176;6.614;2023-12-14T08:04:55;4.60;99.90
52127;DHT22;38120;53.176;6.614;2023-12-14T08:07:20;4.60;99.90
52127;DHT22;38120;53.176;6.614;2023-12-14T08:09:46;4.60;99.90
52127;DHT22;38120;53.176;6.614;2023-12-14T08:12:12;4.60;99.90
52127;DHT22;38120;53.176;6.614;2023-12-14T08:14:38;5.00;99.90
52127;DHT22;38120;53.176;6.614;2023-12-14T08:17:08;4.60;99.90
52127;DHT22;38120;53.176;6.614;2023-12-14T08:19:34;4.60;99.90
52127;DHT22;38120;53.176;6.614;2023-12-14T08:22:01;4.60;99.90
52127;DHT22;38120;53.176;6.614;2023-12-14T08:24:26;4.60;99.90
52127;DHT22;38120;53.176;6.614;2023-12-14T08:26:52;4.60;99.90
52127;DHT22;38120;53.176;6.614;2023-12-14T08:29:18;4.70;99.90
52127;DHT22;38120;53.176;6.614;2023-12-14T08:31:43;4.70;99.90
52127;DHT22;38120;53.176;6.614;2023-12-14T08:34:09;4.70;99.90
52127;DHT22;38120;53.176;6.614;2023-12-14T08:36:35;4.70;99.90
52127;DHT22;38120;53.176;6.614;2023-12-14T08:39:01;4.70;99.90
52127;DHT22;38120;53.176;6.614;2023-12-14T08:41:27;4.70;99.90
52127;DHT22;38120;53.176;6.614;2023-12-14T08:43:53;4.80;99.90
52127;DHT22;38120;53.176;6.614;2023-12-14T08:46:21;4.80;99.90
52127;DHT22;38120;53.176;6.614;2023-12-14T08:48:47;4.80;99.90
52127;DHT22;38120;53.176;6.614;2023-12-14T08:51:13;4.80;99.90
52127;DHT22;38120;53.176;6.614;2023-12-14T08:53:38;4.80;99.90
52127;DHT22;38120;53.176;6.614;2023-12-14T08:56:04;4.80;99.90
52127;DHT22;38120;53.176;6.614;2023-12-14T08:58:30;4.80;99.90
52127;DHT22;38120;53.176;6.614;2023-12-14T09:00:56;4.90;99.90
52127;DHT22;38120;53.176;6.614;2023-12-14T09:03:22;4.90;99.90
52127;DHT22;38120;53.176;6.614;2023-12-14T09:05:48;4.90;99.90
52127;DHT22;38120;53.176;6.614;2023-12-14T09:08:13;4.90;99.90
52127;DHT22;38120;53.176;6.614;2023-12-14T09:10:39;4.90;99.90
52127;DHT22;38120;53.176;6.614;2023-12-14T09:13:05;5.00;99.90
52127;DHT22;38120;53.176;6.614;2023-12-14T09:15:31;5.00;99.90
52127;DHT22;38120;53.176;6.614;2023-12-14T09:17:57;5.00;99.90
52127;DHT22;38120;53.176;6.614;2023-12-14T09:20:23;5.00;99.90
52127;DHT22;38120;53.176;6.614;2023-12-14T09:22:49;5.10;99.90
52127;DHT22;38120;53.176;6.614;2023-12-14T09:25:14;5.10;99.90
52127;DHT22;38120;53.176;6.614;2023-12-14T09:27:41;5.10;99.90
52127;DHT22;38120;53.176;6.614;2023-12-14T09:30:07;5.20;99.90
52127;DHT22;38120;53.176;6.614;2023-12-14T09:32:33;5.10;99.90
52127;DHT22;38120;53.176;6.614;2023-12-14T09:34:59;5.10;99.90
52127;DHT22;38120;53.176;6.614;2023-12-14T09:37:25;5.10;99.90
52127;DHT22;38120;53.176;6.614;2023-12-14T09:39:51;5.00;99.90
52127;DHT22;38120;53.176;6.614;2023-12-14T09:42:21;5.10;99.90
52127;DHT22;38120;53.176;6.614;2023-12-14T09:44:47;5.10;99.90
52127;DHT22;38120;53.176;6.614;2023-12-14T09:47:13;5.10;99.90
52127;DHT22;38120;53.176;6.614;2023-12-14T09:49:41;5.20;99.90
52127;DHT22;38120;53.176;6.614;2023-12-14T09:52:08;5.10;99.90
52127;DHT22;38120;53.176;6.614;2023-12-14T09:54:34;5.10;99.90
52127;DHT22;38120;53.176;6.614;2023-12-14T09:57:00;5.20;99.90
52127;DHT22;38120;53.176;6.614;2023-12-14T09:59:26;5.10;99.90
52127;DHT22;38120;53.176;6.614;2023-12-14T10:01:52;5.10;99.90
52127;DHT22;38120;53.176;6.614;2023-12-14T10:04:19;5.30;99.90
52127;DHT22;38120;53.176;6.614;2023-12-14T10:06:46;5.20;99.90
52127;DHT22;38120;53.176;6.614;2023-12-14T10:09:12;5.30;99.90
52127;DHT22;38120;53.176;6.614;2023-12-14T10:11:41;5.30;99.90
52127;DHT22;38120;53.176;6.614;2023-12-14T10:14:24;5.40;99.90
52127;DHT22;38120;53.176;6.614;2023-12-14T10:16:51;5.30;99.90
52127;DHT22;38120;53.176;6.614;2023-12-14T10:19:17;5.30;99.90
52127;DHT22;38120;53.176;6.614;2023-12-14T10:21:43;5.30;99.90
52127;DHT22;38120;53.176;6.614;2023-12-14T10:24:12;5.30;99.90
52127;DHT22;38120;53.176;6.614;2023-12-14T10:26:37;5.30;99.90
52127;DHT22;38120;53.176;6.614;2023-12-14T10:29:03;5.30;99.90
52127;DHT22;38120;53.176;6.614;2023-12-14T10:31:31;5.40;99.90
52127;DHT22;38120;53.176;6.614;2023-12-14T10:33:56;5.40;99.90
52127;DHT22;38120;53.176;6.614;2023-12-14T10:36:25;5.40;99.90
52127;DHT22;38120;53.176;6.614;2023-12-14T10:38:53;5.40;99.90
52127;DHT22;38120;53.176;6.614;2023-12-14T10:41:21;5.40;99.90
52127;DHT22;38120;53.176;6.614;2023-12-14T10:43:48;5.40;99.90
52127;DHT22;38120;53.176;6.614;2023-12-14T10:46:14;5.40;99.90
52127;DHT22;38120;53.176;6.614;2023-12-14T10:48:40;5.40;99.90
52127;DHT22;38120;53.176;6.614;2023-12-14T10:51:11;5.40;99.90
52127;DHT22;38120;53.176;6.614;2023-12-14T10:53:37;3.90;99.90
52127;DHT22;38120;53.176;6.614;2023-12-14T10:56:09;5.50;99.90
52127;DHT22;38120;53.176;6.614;2023-12-14T10:58:52;5.40;99.90
52127;DHT22;38120;53.176;6.614;2023-12-14T11:01:23;5.60;99.90
52127;DHT22;38120;53.176;6.614;2023-12-14T11:03:56;5.60;99.90
52127;DHT22;38120;53.176;6.614;2023-12-14T11:06:29;5.60;99.90
52127;DHT22;38120;53.176;6.614;2023-12-14T11:09:05;5.60;99.90
52127;DHT22;38120;53.176;6.614;2023-12-14T11:14:15;5.70;99.90
52127;DHT22;38120;53.176;6.614;2023-12-14T11:16:44;5.70;99.90
52127;DHT22;38120;53.176;6.614;2023-12-14T11:24:21;5.80;99.90
52127;DHT22;38120;53.176;6.614;2023-12-14T11:26:49;5.70;99.90
52127;DHT22;38120;53.176;6.614;2023-12-14T11:29:15;5.80;99.90
52127;DHT22;38120;53.176;6.614;2023-12-14T11:31:41;5.80;99.90
52127;DHT22;38120;53.176;6.614;2023-12-14T11:34:09;6.40;99.90
52127;DHT22;38120;53.176;6.614;2023-12-14T11:36:36;5.70;99.90
52127;DHT22;38120;53.176;6.614;2023-12-14T11:39:05;7.30;99.90
52127;DHT22;38120;53.176;6.614;2023-12-14T11:41:31;5.80;99.90
52127;DHT22;38120;53.176;6.614;2023-12-14T11:43:59;5.90;99.90
52127;DHT22;38120;53.176;6.614;2023-12-14T11:46:25;5.90;99.90
52127;DHT22;38120;53.176;6.614;2023-12-14T11:48:51;5.90;99.90
52127;DHT22;38120;53.176;6.614;2023-12-14T11:51:17;5.90;99.90
52127;DHT22;38120;53.176;6.614;2023-12-14T11:53:47;5.90;99.90
52127;DHT22;38120;53.176;6.614;2023-12-14T11:56:14;5.80;99.90
52127;DHT22;38120;53.176;6.614;2023-12-14T11:58:44;5.90;99.90
52127;DHT22;38120;53.176;6.614;2023-12-14T12:01:14;5.90;99.90
52127;DHT22;38120;53.176;6.614;2023-12-14T12:03:40;5.90;99.90
52127;DHT22;38120;53.176;6.614;2023-12-14T12:06:06;5.90;99.90
52127;DHT22;38120;53.176;6.614;2023-12-14T12:08:40;5.90;99.90
52127;DHT22;38120;53.176;6.614;2023-12-14T12:11:07;6.00;99.90
52127;DHT22;38120;53.176;6.614;2023-12-14T12:13:34;5.90;99.90
52127;DHT22;38120;53.176;6.614;2023-12-14T12:16:00;5.90;99.90
52127;DHT22;38120;53.176;6.614;2023-12-14T12:18:26;5.90;99.90
52127;DHT22;38120;53.176;6.614;2023-12-14T12:20:52;5.90;99.90
52127;DHT22;38120;53.176;6.614;2023-12-14T12:23:18;6.00;99.90
52127;DHT22;38120;53.176;6.614;2023-12-14T12:25:44;6.00;99.90
52127;DHT22;38120;53.176;6.614;2023-12-14T12:28:10;6.00;99.90
52127;DHT22;38120;53.176;6.614;2023-12-14T12:30:36;6.00;99.90
52127;DHT22;38120;53.176;6.614;2023-12-14T12:33:01;5.90;99.90
52127;DHT22;38120;53.176;6.614;2023-12-14T12:35:27;5.90;99.90
52127;DHT22;38120;53.176;6.614;2023-12-14T12:37:56;6.20;99.90
52127;DHT22;38120;53.176;6.614;2023-12-14T12:40:22;6.00;99.90
52127;DHT22;38120;53.176;6.614;2023-12-14T12:42:49;5.90;99.90
52127;DHT22;38120;53.176;6.614;2023-12-14T12:45:15;6.00;99.90
52127;DHT22;38120;53.176;6.614;2023-12-14T12:47:47;6.00;99.90
52127;DHT22;38120;53.176;6.614;2023-12-14T12:50:13;5.90;99.90
52127;DHT22;38120;53.176;6.614;2023-12-14T12:52:39;5.90;99.90
52127;DHT22;38120;53.176;6.614;2023-12-14T12:55:06;5.90;99.90
52127;DHT22;38120;53.176;6.614;2023-12-14T12:57:32;5.90;99.90
52127;DHT22;38120;53.176;6.614;2023-12-14T12:59:58;5.90;99.90
52127;DHT22;38120;53.176;6.614;2023-12-14T13:02:24;5.90;99.90
52127;DHT22;38120;53.176;6.614;2023-12-14T13:04:50;5.80;99.90
52127;DHT22;38120;53.176;6.614;2023-12-14T13:07:16;5.80;99.90
52127;DHT22;38120;53.176;6.614;2023-12-14T13:09:44;5.80;99.90
52127;DHT22;38120;53.176;6.614;2023-12-14T13:12:09;5.80;99.90
52127;DHT22;38120;53.176;6.614;2023-12-14T13:14:35;5.80;99.90
52127;DHT22;38120;53.176;6.614;2023-12-14T13:17:01;5.80;99.90
52127;DHT22;38120;53.176;6.614;2023-12-14T13:19:27;5.90;99.90
52127;DHT22;38120;53.176;6.614;2023-12-14T13:21:54;5.90;99.90
52127;DHT22;38120;53.176;6.614;2023-12-14T13:24:23;5.80;99.90
52127;DHT22;38120;53.176;6.614;2023-12-14T13:26:49;5.80;99.90
52127;DHT22;38120;53.176;6.614;2023-12-14T13:29:15;5.80;99.90
52127;DHT22;38120;53.176;6.614;2023-12-14T13:31:41;5.80;99.90
52127;DHT22;38120;53.176;6.614;2023-12-14T13:34:06;5.80;99.90
52127;DHT22;38120;53.176;6.614;2023-12-14T13:36:32;5.80;99.90
52127;DHT22;38120;53.176;6.614;2023-12-14T13:38:58;5.80;99.90
52127;DHT22;38120;53.176;6.614;2023-12-14T13:41:24;5.80;99.90
52127;DHT22;38120;53.176;6.614;2023-12-14T13:43:50;5.80;99.90
52127;DHT22;38120;53.176;6.614;2023-12-14T13:46:17;5.80;99.90
52127;DHT22;38120;53.176;6.614;2023-12-14T13:48:43;6.00;99.90
52127;DHT22;38120;53.176;6.614;2023-12-14T13:51:09;5.80;99.90
52127;DHT22;38120;53.176;6.614;2023-12-14T13:53:35;5.90;99.90
52127;DHT22;38120;53.176;6.614;2023-12-14T13:56:00;5.80;99.90
52127;DHT22;38120;53.176;6.614;2023-12-14T13:58:26;5.80;99.90
52127;DHT22;38120;53.176;6.614;2023-12-14T14:00:52;6.20;99.90
52127;DHT22;38120;53.176;6.614;2023-12-14T14:03:17;5.80;99.90
52127;DHT22;38120;53.176;6.614;2023-12-14T14:05:43;5.80;99.90
52127;DHT22;38120;53.176;6.614;2023-12-14T14:08:10;5.80;99.90
52127;DHT22;38120;53.176;6.614;2023-12-14T14:10:36;5.80;99.90
52127;DHT22;38120;53.176;6.614;2023-12-14T14:13:02;5.80;99.90
52127;DHT22;38120;53.176;6.614;2023-12-14T14:15:28;5.80;99.90
52127;DHT22;38120;53.176;6.614;2023-12-14T14:17:54;6.20;99.90
52127;DHT22;38120;53.176;6.614;2023-12-14T14:20:21;5.80;99.90
52127;DHT22;38120;53.176;6.614;2023-12-14T14:22:49;5.80;99.90
52127;DHT22;38120;53.176;6.614;2023-12-14T14:25:14;5.70;99.90
52127;DHT22;38120;53.176;6.614;2023-12-14T14:27:40;5.70;99.90
52127;DHT22;38120;53.176;6.614;2023-12-14T14:30:06;5.80;99.90
52127;DHT22;38120;53.176;6.614;2023-12-14T14:32:32;5.80;99.90
52127;DHT22;38120;53.176;6.614;2023-12-14T14:35:01;5.80;99.90
52127;DHT22;38120;53.176;6.614;2023-12-14T14:37:26;5.90;99.90
52127;DHT22;38120;53.176;6.614;2023-12-14T14:39:52;5.90;99.90
52127;DHT22;38120;53.176;6.614;2023-12-14T14:42:18;6.40;99.90
52127;DHT22;38120;53.176;6.614;2023-12-14T14:44:43;5.90;99.90
52127;DHT22;38120;53.176;6.614;2023-12-14T14:47:09;5.90;99.90
52127;DHT22;38120;53.176;6.614;2023-12-14T14:49:35;5.90;99.90
52127;DHT22;38120;53.176;6.614;2023-12-14T14:52:00;5.80;99.90
52127;DHT22;38120;53.176;6.614;2023-12-14T14:54:26;5.80;99.90
52127;DHT22;38120;53.176;6.614;2023-12-14T14:56:52;5.80;99.90
52127;DHT22;38120;53.176;6.614;2023-12-14T14:59:18;5.80;99.90
52127;DHT22;38120;53.176;6.614;2023-12-14T15:01:43;5.80;99.90
52127;DHT22;38120;53.176;6.614;2023-12-14T15:04:11;5.80;99.90
52127;DHT22;38120;53.176;6.614;2023-12-14T15:06:36;5.70;99.90
52127;DHT22;38120;53.176;6.614;2023-12-14T15:09:04;5.70;99.90
52127;DHT22;38120;53.176;6.614;2023-12-14T15:11:30;5.70;99.90
52127;DHT22;38120;53.176;6.614;2023-12-14T15:13:56;5.70;99.90
52127;DHT22;38120;53.176;6.614;2023-12-14T15:16:22;5.70;99.90
52127;DHT22;38120;53.176;6.614;2023-12-14T15:18:53;5.70;99.90
52127;DHT22;38120;53.176;6.614;2023-12-14T15:21:19;5.70;99.90
52127;DHT22;38120;53.176;6.614;2023-12-14T15:23:45;5.60;99.90
52127;DHT22;38120;53.176;6.614;2023-12-14T15:26:13;5.60;99.90
52127;DHT22;38120;53.176;6.614;2023-12-14T15:28:39;5.60;99.90
52127;DHT22;38120;53.176;6.614;2023-12-14T15:31:06;5.60;99.90
52127;DHT22;38120;53.176;6.614;2023-12-14T15:33:32;5.60;99.90
52127;DHT22;38120;53.176;6.614;2023-12-14T15:35:58;5.60;99.90
52127;DHT22;38120;53.176;6.614;2023-12-14T15:38:25;5.60;99.90
52127;DHT22;38120;53.176;6.614;2023-12-14T15:40:50;5.60;99.90
52127;DHT22;38120;53.176;6.614;2023-12-14T15:43:16;5.60;99.90
52127;DHT22;38120;53.176;6.614;2023-12-14T15:45:42;5.60;99.90
52127;DHT22;38120;53.176;6.614;2023-12-14T15:48:08;5.60;99.90
52127;DHT22;38120;53.176;6.614;2023-12-14T15:50:34;5.60;99.90